RACE ROCKS, current weather conditions

sailwx.info

Wind from 280 at 29 knots

Air temperature 12.2° C
Dewpoint 10.3° C

Last reported at 2019-Jun-16 22:00 UTC.
Time now 2019-Jun-17 05:06 UTC

Location: N 48°18' W 123°32'.
View on Google Maps.

See reports from other nearby stations

  
Tides and Currents Weather Stations Pressure Air Temp Water Temp Dewpoint Dewpoint Depression Visibility Wind Speed Wind Dir Waves Ship Positions
date/time (UTC)wind fromknots sea level pressurealtimeterstation pressurevisibilityair tempwater tempwave heightnotes
2019-Jun-16 22:00 280 29 12.2
2019-Jun-16 21:00 280 27 13.1
2019-Jun-16 20:00 240 17 11.4
2019-Jun-16 19:00 250 19 11.7
2019-Jun-16 18:00 250 18 11.7
2019-Jun-16 17:00 280 22 13.2
2019-Jun-16 16:00 280 26 12.3
2019-Jun-16 15:00 280 20 13.1
2019-Jun-16 14:00 280 21 13.0
2019-Jun-16 13:00 280 26 12.1
2019-Jun-16 12:00 270 27 11.4
2019-Jun-16 11:00 270 27 11.0
2019-Jun-16 10:00 270 26 10.9
2019-Jun-16 09:00 270 29 11.0
2019-Jun-16 08:00 270 31 10.9
2019-Jun-16 07:00 270 34 11.2
2019-Jun-16 06:00 270 33 11.3
2019-Jun-16 05:00 270 34 gusting 39 11.3
2019-Jun-16 04:00 270 34 gusting 40 11.2
2019-Jun-16 03:00 270 40 gusting 45 11.6
2019-Jun-16 02:00 280 35 12.7
2019-Jun-16 01:00 280 31 12.9
2019-Jun-16 00:00 270 28 11.0
2019-Jun-15 23:00 270 26 11.4
2019-Jun-15 22:00 270 20 11.3
2019-Jun-15 21:00 270 19 11.4
2019-Jun-15 20:00 270 20 11.0
2019-Jun-15 19:00 270 21 11.2
2019-Jun-15 18:00 280 20 11.2
2019-Jun-15 17:00 260 19 10.9
2019-Jun-15 16:00 270 19 10.7
2019-Jun-15 15:00 280 19 10.7
2019-Jun-15 14:00 280 19 10.4
2019-Jun-15 13:00 270 20 10.5
2019-Jun-15 12:00 270 21 11.0
2019-Jun-15 11:00 270 25 11.1
2019-Jun-15 10:00 270 25 10.8
2019-Jun-15 09:00 270 25 11.0
2019-Jun-15 08:00 270 26 11.1
2019-Jun-15 07:00 270 25 11.0
2019-Jun-15 06:00 270 24 11.4
2019-Jun-15 05:00 280 20 11.7